createdAt,value
2017-09-08T09:39:19.033Z,11188
2017-09-08T09:40:19.687Z,14212
2017-09-08T09:41:20.339Z,16312
2017-09-08T09:42:21.034Z,11784
2017-09-08T09:43:21.772Z,10296
2017-09-08T09:44:22.429Z,11572
2017-09-08T09:45:23.087Z,10912
2017-09-08T09:46:23.755Z,11492
2017-09-08T09:47:24.433Z,9988
2017-09-08T09:48:25.089Z,9664
2017-09-08T09:49:25.752Z,9412
2017-09-08T09:50:26.447Z,7364
2017-09-08T09:51:27.120Z,5828
2017-09-08T09:52:27.780Z,5632
2017-09-08T09:53:28.438Z,5504
2017-09-08T09:54:29.094Z,6444
2017-09-08T09:55:29.753Z,6912
2017-09-08T09:56:30.417Z,8180
2017-09-08T09:57:31.077Z,9800
2017-09-08T09:58:31.734Z,10280
2017-09-08T09:59:32.393Z,11092
2017-09-08T10:00:33.118Z,10600
2017-09-08T10:01:33.802Z,9128
2017-09-08T10:02:34.488Z,7156
2017-09-08T10:03:35.187Z,8000
2017-09-08T10:04:35.848Z,8344
2017-09-08T10:05:36.504Z,8712
2017-09-08T10:06:37.182Z,7376
2017-09-08T10:07:37.832Z,7060
2017-09-08T10:08:38.496Z,7656
2017-09-08T10:09:39.185Z,7532
2017-09-08T10:10:39.842Z,8196
2017-09-08T10:11:40.503Z,9516
2017-09-08T10:12:41.162Z,9828
2017-09-08T10:13:41.852Z,9232
2017-09-08T10:14:42.512Z,10252
2017-09-08T10:15:43.202Z,11080
2017-09-08T10:16:43.864Z,9492
2017-09-08T10:17:44.527Z,10788
2017-09-08T10:18:45.182Z,9856
2017-09-08T10:19:45.842Z,9236
2017-09-08T10:20:46.503Z,8724
2017-09-08T10:21:47.163Z,10928
2017-09-08T10:22:47.828Z,12436
2017-09-08T10:23:48.485Z,13576
2017-09-08T10:24:49.141Z,11796
2017-09-08T10:25:49.804Z,10912
2017-09-08T10:26:50.461Z,9584
2017-09-08T10:27:51.120Z,11152
2017-09-08T10:28:51.783Z,12276
2017-09-08T10:29:52.445Z,11328
2017-09-08T10:30:53.101Z,10960
2017-09-08T10:31:53.764Z,10720
2017-09-08T10:32:54.425Z,12152
2017-09-08T10:33:55.080Z,11092
2017-09-08T10:34:55.754Z,9956
2017-09-08T10:35:56.401Z,9904
2017-09-08T10:36:57.050Z,9252
2017-09-08T10:37:57.746Z,9436
2017-09-08T10:38:58.442Z,8516
2017-09-08T10:39:59.078Z,7432
2017-09-08T10:40:59.762Z,6900
2017-09-08T10:42:00.424Z,7320
2017-09-08T10:43:01.093Z,6476
2017-09-08T10:44:01.756Z,6728
2017-09-08T10:45:02.434Z,6636
2017-09-08T10:46:03.092Z,5900
2017-09-08T10:47:03.750Z,5280
2017-09-08T10:48:04.415Z,5744
2017-09-08T10:49:05.073Z,5928
2017-09-08T10:50:05.730Z,5480
2017-09-08T10:51:06.393Z,5688
2017-09-08T10:52:07.089Z,5640
2017-09-08T10:53:07.736Z,5912
2017-09-08T10:54:08.395Z,6872
2017-09-08T10:55:09.053Z,8608
2017-09-08T10:56:09.711Z,8640
2017-09-08T10:57:10.377Z,8140
2017-09-08T10:58:11.038Z,7016
2017-09-08T10:59:11.695Z,6540
2017-09-08T11:00:12.354Z,7040
2017-09-08T11:01:13.015Z,8588
2017-09-08T11:02:13.708Z,12024
2017-09-08T11:03:14.366Z,10724
2017-09-08T11:04:15.028Z,13856
2017-09-08T11:05:15.689Z,14244
2017-09-08T11:06:16.346Z,14012
2017-09-08T11:07:17.006Z,13560
2017-09-08T11:08:17.694Z,12856
2017-09-08T11:09:18.355Z,14348
2017-09-08T11:10:19.011Z,12912
2017-09-08T11:11:19.677Z,12312
2017-09-08T11:12:20.339Z,13928
2017-09-08T11:13:20.997Z,16032
2017-09-08T11:14:21.660Z,13632
2017-09-08T11:15:22.319Z,13900
2017-09-08T11:16:22.979Z,12724
2017-09-08T11:17:23.642Z,13976
2017-09-08T11:18:24.303Z,13144
2017-09-08T11:19:24.964Z,10748
2017-09-08T11:20:25.628Z,13648
2017-09-08T11:21:26.298Z,13600
2017-09-08T11:22:26.990Z,13260
2017-09-08T11:23:27.684Z,13652
2017-09-08T11:24:28.374Z,12808
2017-09-08T11:25:29.036Z,10984
2017-09-08T11:26:29.727Z,11452
2017-09-08T11:27:30.420Z,12404
2017-09-08T11:28:31.081Z,12276
2017-09-08T11:29:31.753Z,10772
2017-09-08T11:30:32.435Z,10036
2017-09-08T11:31:33.094Z,9156
2017-09-08T11:32:33.748Z,9164
2017-09-08T11:33:34.414Z,11108
2017-09-08T11:34:35.077Z,12176
2017-09-08T11:35:35.738Z,10696
2017-09-08T11:36:36.397Z,11656
2017-09-08T11:37:37.057Z,11052
2017-09-08T11:38:37.718Z,9400
2017-09-08T11:39:38.380Z,8656
2017-09-08T11:40:39.041Z,9916
2017-09-08T11:41:39.702Z,12500
2017-09-08T11:42:40.365Z,12756
2017-09-08T11:43:41.143Z,11328
2017-09-08T11:44:41.939Z,11196
2017-09-08T11:45:42.598Z,11052
2017-09-08T11:46:43.297Z,11648
2017-09-08T11:47:43.992Z,10112
2017-09-08T11:48:44.650Z,11108
2017-09-08T11:49:45.315Z,13888
2017-09-08T11:50:45.978Z,17700
2017-09-08T11:51:46.634Z,19168
2017-09-08T11:52:47.331Z,16668
2017-09-08T11:53:48.088Z,15032
2017-09-08T11:54:48.751Z,14972
2017-09-08T11:55:49.443Z,15332
2017-09-08T11:56:50.137Z,12744
2017-09-08T11:57:50.799Z,14080
2017-09-08T11:58:51.457Z,14860
2017-09-08T11:59:52.124Z,13700
2017-09-08T12:00:52.785Z,15344
2017-09-08T12:01:53.448Z,15944
2017-09-08T12:02:54.106Z,14312
2017-09-08T12:03:54.770Z,12496
2017-09-08T12:04:55.432Z,12812
2017-09-08T12:05:56.103Z,16188
2017-09-08T12:06:56.835Z,16304
2017-09-08T12:07:57.525Z,12000
2017-09-08T12:08:58.188Z,12896
2017-09-08T12:09:58.840Z,12204
2017-09-08T12:10:59.560Z,10936
2017-09-08T12:12:00.209Z,11800
2017-09-08T12:13:00.875Z,10628
2017-09-08T12:14:01.533Z,13444
2017-09-08T12:15:02.190Z,11508
2017-09-08T12:16:02.853Z,11232
2017-09-08T12:17:03.520Z,11212
2017-09-08T12:18:04.181Z,12596
2017-09-08T12:19:04.840Z,11680
2017-09-08T12:20:05.513Z,15104
2017-09-08T12:21:06.195Z,16424
2017-09-08T12:22:06.856Z,16080
2017-09-08T12:23:07.517Z,17148
2017-09-08T12:24:08.178Z,16600
2017-09-08T12:25:08.844Z,16456
2017-09-08T12:26:09.517Z,13320
2017-09-08T12:27:10.170Z,14540
2017-09-08T12:28:10.859Z,14548
2017-09-08T12:29:11.527Z,14572
2017-09-08T12:30:12.250Z,16884
2017-09-08T12:31:12.918Z,17564
2017-09-08T12:32:13.583Z,15292
2017-09-08T12:33:14.269Z,14792
2017-09-08T12:34:14.960Z,14172
2017-09-08T12:35:15.622Z,14344
2017-09-08T12:36:16.286Z,14420
2017-09-08T12:37:16.949Z,13688
2017-09-08T12:38:17.611Z,13876
2017-09-08T12:39:18.303Z,11996
2017-09-08T12:40:18.969Z,10404
2017-09-08T12:41:19.624Z,9436
2017-09-08T12:42:20.289Z,8696
2017-09-08T12:43:20.948Z,7776
2017-09-08T12:44:21.614Z,7572
2017-09-08T12:45:22.274Z,7564
2017-09-08T12:46:22.930Z,7632
2017-09-08T12:47:23.596Z,6716
2017-09-08T12:48:24.252Z,6972
2017-09-08T12:49:24.918Z,9100
2017-09-08T12:50:25.579Z,10376
2017-09-08T12:51:26.241Z,10404
2017-09-08T12:52:26.903Z,8308
2017-09-08T12:53:27.592Z,6520
2017-09-08T12:54:28.246Z,5840
2017-09-08T12:55:28.909Z,5304
2017-09-08T12:56:29.608Z,5160
2017-09-08T12:57:30.260Z,5316
2017-09-08T12:58:30.923Z,6148
2017-09-08T12:59:31.614Z,5908
2017-09-08T13:00:32.277Z,6304
2017-09-08T13:01:32.935Z,5948
2017-09-08T13:02:33.594Z,5780
2017-09-08T13:03:34.347Z,4548
2017-09-08T13:04:35.179Z,5964
2017-09-08T13:05:35.970Z,5584
2017-09-08T13:06:36.640Z,4640
2017-09-08T13:07:37.300Z,5224
2017-09-08T13:08:37.961Z,5620
2017-09-08T13:09:38.618Z,5244
2017-09-08T13:10:39.281Z,4980
2017-09-08T13:11:39.938Z,5500
2017-09-08T13:12:40.599Z,8052
2017-09-08T13:13:41.258Z,8656
2017-09-08T13:14:41.924Z,8800
2017-09-08T13:15:42.582Z,8992
2017-09-08T13:16:43.240Z,9344
2017-09-08T13:17:43.902Z,11424
2017-09-08T13:18:44.598Z,11932
2017-09-08T13:19:45.224Z,11864
2017-09-08T13:20:45.884Z,12004
2017-09-08T13:21:46.546Z,11384
2017-09-08T13:22:47.207Z,11092
2017-09-08T13:23:47.869Z,9132
2017-09-08T13:24:48.528Z,10268
2017-09-08T13:25:49.190Z,9528
2017-09-08T13:26:49.850Z,9980
2017-09-08T13:27:50.511Z,10856
2017-09-08T13:28:51.171Z,10760
2017-09-08T13:29:51.833Z,12500
2017-09-08T13:30:52.493Z,12048
2017-09-08T13:31:53.157Z,10480
2017-09-08T13:32:53.820Z,10248
2017-09-08T13:33:54.475Z,9488
2017-09-08T13:34:55.138Z,9936
2017-09-08T13:35:55.798Z,8156
2017-09-08T13:36:56.456Z,8668
2017-09-08T13:37:57.116Z,7420
2017-09-08T13:38:57.777Z,8344
2017-09-08T13:39:58.436Z,8308
2017-09-08T13:40:59.102Z,7960
2017-09-08T13:41:59.753Z,7876
2017-09-08T13:43:00.417Z,8020
2017-09-08T13:44:01.088Z,7736
2017-09-08T13:45:01.735Z,7620
2017-09-08T13:46:02.396Z,6980
2017-09-08T13:47:03.058Z,6164
2017-09-08T13:48:03.749Z,5108
2017-09-08T13:49:04.438Z,5116
2017-09-08T13:50:05.101Z,5000
2017-09-08T13:51:05.758Z,5284
2017-09-08T13:52:06.421Z,6160
2017-09-08T13:53:07.079Z,6544
2017-09-08T13:54:07.737Z,5740
2017-09-08T13:55:08.401Z,6192
2017-09-08T13:56:09.057Z,6544
2017-09-08T13:57:09.717Z,6280
2017-09-08T13:58:10.375Z,7168
2017-09-08T13:59:11.035Z,7164
2017-09-08T14:00:11.694Z,7492
2017-09-08T14:01:12.359Z,8896
2017-09-08T14:02:13.012Z,9300
2017-09-08T14:03:13.670Z,9764
2017-09-08T14:04:14.335Z,10932
2017-09-08T14:05:15.022Z,10756
2017-09-08T14:06:15.683Z,10696
2017-09-08T14:07:16.346Z,10704
2017-09-08T14:08:17.006Z,9572
2017-09-08T14:09:17.664Z,8812
2017-09-08T14:10:18.332Z,8452
2017-09-08T14:11:19.011Z,7080
2017-09-08T14:12:19.673Z,6696
2017-09-08T14:13:20.333Z,6988
2017-09-08T14:14:20.991Z,6912
2017-09-08T14:15:21.653Z,6444
2017-09-08T14:16:22.330Z,6080
2017-09-08T14:17:22.980Z,5360
2017-09-08T14:18:23.652Z,5236
2017-09-08T14:19:24.337Z,5892
2017-09-08T14:20:25.004Z,6108
2017-09-08T14:21:25.722Z,5836
2017-09-08T14:22:26.409Z,5244
2017-09-08T14:23:27.075Z,5296
2017-09-08T14:24:27.725Z,5764
2017-09-08T14:25:28.395Z,5212
2017-09-08T14:26:29.046Z,5068
2017-09-08T14:27:29.697Z,4504
2017-09-08T14:28:30.418Z,4476
2017-09-08T14:29:31.076Z,3784
2017-09-08T14:30:31.730Z,3316
2017-09-08T14:31:32.393Z,3252
2017-09-08T14:32:33.048Z,2944
2017-09-08T14:33:33.710Z,3020
2017-09-08T14:34:34.367Z,2640
2017-09-08T14:35:35.030Z,2728
2017-09-08T14:36:35.695Z,2764
2017-09-08T14:37:36.350Z,2628
2017-09-08T14:38:37.009Z,3136
2017-09-08T14:39:37.668Z,3108
2017-09-08T14:40:38.329Z,3192
2017-09-08T14:41:38.990Z,3832
2017-09-08T14:42:39.647Z,4796
2017-09-08T14:43:40.314Z,5156
2017-09-08T14:44:41.005Z,5160
2017-09-08T14:45:41.695Z,4504
2017-09-08T14:46:42.392Z,3928
2017-09-08T14:47:43.083Z,3424
2017-09-08T14:48:43.766Z,3124
2017-09-08T14:49:44.426Z,3064
2017-09-08T14:50:45.085Z,3180
2017-09-08T14:51:45.750Z,2880
2017-09-08T14:52:46.435Z,2652
2017-09-08T14:53:47.091Z,2872
2017-09-08T14:54:47.747Z,2588
2017-09-08T14:55:48.416Z,2668
2017-09-08T14:56:49.075Z,3292
2017-09-08T14:57:49.731Z,3728
2017-09-08T14:58:50.389Z,3404
2017-09-08T14:59:51.057Z,3352
2017-09-08T15:00:51.747Z,3260
2017-09-08T15:01:52.435Z,2824
2017-09-08T15:02:53.090Z,2312
2017-09-08T15:03:53.779Z,3228
2017-09-08T15:04:54.439Z,3520
2017-09-08T15:05:55.136Z,2996
2017-09-08T15:06:55.826Z,2936
2017-09-08T15:07:56.480Z,2864
2017-09-08T15:08:57.142Z,3184
2017-09-08T15:09:57.803Z,2920
2017-09-08T15:10:58.466Z,3152
2017-09-08T15:11:59.120Z,3240
2017-09-08T15:12:59.778Z,3352
2017-09-08T15:14:00.438Z,3760
2017-09-08T15:15:01.100Z,3192
2017-09-08T15:16:01.793Z,2852
2017-09-08T15:17:02.481Z,2900
2017-09-08T15:18:03.141Z,3280
2017-09-08T15:19:03.797Z,3368
2017-09-08T15:20:04.461Z,3292
2017-09-08T15:21:05.118Z,2788
2017-09-08T15:22:05.812Z,3600
2017-09-08T15:23:06.498Z,3504
2017-09-08T15:24:07.156Z,3448
2017-09-08T15:25:07.813Z,3208
2017-09-08T15:26:08.473Z,2416
2017-09-08T15:27:09.134Z,2320
2017-09-08T15:28:09.795Z,2244
2017-09-08T15:29:10.456Z,2060
2017-09-08T15:30:11.113Z,1952
2017-09-08T15:31:11.771Z,2028
2017-09-08T15:32:12.428Z,2164
2017-09-08T15:33:13.087Z,2152
2017-09-08T15:34:13.751Z,2560
2017-09-08T15:35:14.437Z,2192
2017-09-08T15:36:15.095Z,2128
2017-09-08T15:37:15.746Z,2196
2017-09-08T15:38:16.412Z,2216
2017-09-08T15:39:17.068Z,2200
2017-09-08T15:40:17.727Z,3048
2017-09-08T15:41:18.386Z,3184
2017-09-08T15:42:19.048Z,3196
2017-09-08T15:43:19.708Z,3540
2017-09-08T15:44:20.366Z,3128
2017-09-08T15:45:21.037Z,3240
2017-09-08T15:46:21.684Z,2760
2017-09-08T15:47:22.376Z,2900
2017-09-08T15:48:23.032Z,3100
2017-09-08T15:49:23.694Z,3040
2017-09-08T15:50:24.351Z,3468
2017-09-08T15:51:25.013Z,2652
2017-09-08T15:52:25.692Z,2704
2017-09-08T15:53:26.364Z,3036
2017-09-08T15:54:27.020Z,2272
2017-09-08T15:55:27.722Z,1964
2017-09-08T15:56:28.368Z,2176
2017-09-08T15:57:29.022Z,2228
2017-09-08T15:58:29.686Z,1860
2017-09-08T15:59:30.341Z,1768
2017-09-08T16:00:31.000Z,1660
2017-09-08T16:01:31.660Z,2084
2017-09-08T16:02:32.317Z,1736
2017-09-08T16:03:32.980Z,1528
2017-09-08T16:04:33.635Z,1580
2017-09-08T16:05:34.295Z,1600
2017-09-08T16:06:34.952Z,1636
2017-09-08T16:07:35.613Z,1700
2017-09-08T16:08:36.267Z,1812
2017-09-08T16:09:36.935Z,1632
2017-09-08T16:10:37.646Z,1384
2017-09-08T16:11:38.275Z,1452
2017-09-08T16:12:38.932Z,1468
2017-09-08T16:13:39.591Z,1560
2017-09-08T16:14:40.247Z,1820
2017-09-08T16:15:40.940Z,2044
2017-09-08T16:16:41.602Z,1976
2017-09-08T16:17:42.258Z,1588
2017-09-08T16:18:42.918Z,1572
2017-09-08T16:19:43.575Z,1820
2017-09-08T16:20:44.233Z,1680
2017-09-08T16:21:44.895Z,1636
2017-09-08T16:22:45.555Z,1744
2017-09-08T16:23:46.239Z,1860
2017-09-08T16:24:46.900Z,1860
2017-09-08T16:25:47.587Z,1720
2017-09-08T16:26:48.248Z,1944
2017-09-08T16:27:48.938Z,1828
2017-09-08T16:28:49.595Z,2052
2017-09-08T16:29:50.287Z,1868
2017-09-08T16:30:50.976Z,1776
2017-09-08T16:31:51.632Z,1528
2017-09-08T16:32:52.298Z,1632
2017-09-08T16:33:52.949Z,1968
2017-09-08T16:34:53.609Z,2188
2017-09-08T16:35:54.265Z,2580
2017-09-08T16:36:54.927Z,2440
2017-09-08T16:37:55.584Z,2084
2017-09-08T16:38:56.241Z,1728
2017-09-08T16:39:56.914Z,1252
2017-09-08T16:40:57.561Z,1016
2017-09-08T16:41:58.218Z,1164
2017-09-08T16:42:58.878Z,1272
2017-09-08T16:43:59.568Z,860
2017-09-08T16:45:00.216Z,876
2017-09-08T16:46:00.877Z,936
2017-09-08T16:47:01.534Z,928
2017-09-08T16:48:02.192Z,976
2017-09-08T16:49:02.850Z,828
2017-09-08T16:50:03.507Z,764
2017-09-08T16:51:04.166Z,844
2017-09-08T16:52:04.820Z,808
2017-09-08T16:53:05.478Z,568
2017-09-08T16:54:06.166Z,612
2017-09-08T16:55:06.824Z,552
2017-09-08T16:56:07.509Z,680
2017-09-08T16:57:08.169Z,716
2017-09-08T16:58:08.828Z,824
2017-09-08T16:59:09.486Z,860
2017-09-08T17:00:10.174Z,840
2017-09-08T17:01:10.834Z,992
2017-09-08T17:02:11.489Z,864
2017-09-08T17:03:12.146Z,824
2017-09-08T17:04:12.802Z,588
2017-09-08T17:05:13.460Z,612
2017-09-08T17:06:14.118Z,572
2017-09-08T17:07:14.805Z,664
2017-09-08T17:08:15.467Z,452
2017-09-08T17:09:16.121Z,404
2017-09-08T17:10:16.777Z,328
2017-09-08T17:11:17.465Z,284
2017-09-08T17:12:18.123Z,332
2017-09-08T17:13:18.783Z,428
2017-09-08T17:14:19.469Z,520
2017-09-08T17:15:20.126Z,464
2017-09-08T17:16:20.787Z,440
2017-09-08T17:17:21.443Z,556
2017-09-08T17:18:22.102Z,564
2017-09-08T17:19:22.754Z,544
2017-09-08T17:20:23.415Z,580
2017-09-08T17:21:24.070Z,564
2017-09-08T17:22:24.726Z,488
2017-09-08T17:23:25.382Z,560
2017-09-08T17:24:26.045Z,460
2017-09-08T17:25:26.700Z,464
2017-09-08T17:26:27.363Z,412
2017-09-08T17:27:28.014Z,380
2017-09-08T17:28:28.670Z,324
2017-09-08T17:29:29.326Z,264
2017-09-08T17:30:29.981Z,228
2017-09-08T17:31:30.642Z,224
2017-09-08T17:32:31.302Z,208
2017-09-08T17:33:31.961Z,192
2017-09-08T17:34:32.616Z,168
2017-09-08T17:35:33.303Z,108
2017-09-08T17:36:33.994Z,108
2017-09-08T17:37:34.644Z,108
2017-09-08T17:38:35.298Z,88
2017-09-08T17:39:35.953Z,96
2017-09-08T17:40:36.630Z,104
2017-09-08T17:41:37.270Z,100
2017-09-08T17:42:37.922Z,80
2017-09-08T17:43:38.594Z,72
2017-09-08T17:44:39.261Z,64
2017-09-08T17:45:39.920Z,72
2017-09-08T17:46:40.574Z,84
2017-09-08T17:47:41.227Z,80
2017-09-08T17:48:41.882Z,68
2017-09-08T17:49:42.539Z,52
2017-09-08T17:50:43.219Z,52
2017-09-08T17:51:43.875Z,52
2017-09-08T17:52:44.528Z,48
2017-09-08T17:53:45.183Z,36
2017-09-08T17:54:45.838Z,28
2017-09-08T17:55:46.493Z,24
2017-09-08T17:56:47.146Z,24
2017-09-08T17:57:47.902Z,20
2017-09-08T17:58:48.620Z,16
2017-09-08T18:04:36.356Z,8
2017-09-08T18:05:36.993Z,4
2017-09-08T18:06:37.649Z,4
2017-09-08T18:07:38.332Z,4
2017-09-08T18:08:38.988Z,4
2017-09-08T18:09:39.644Z,4
2017-09-08T18:10:40.294Z,0
2017-09-08T18:11:40.950Z,0
2017-09-08T18:12:41.601Z,0
2017-09-08T18:13:42.256Z,0
2017-09-08T18:14:42.911Z,0
2017-09-08T18:15:43.570Z,0
2017-09-08T18:16:44.253Z,0
2017-09-08T18:17:44.902Z,0
2017-09-08T18:18:45.592Z,0
2017-09-08T18:19:46.245Z,0
2017-09-08T18:20:46.901Z,0
2017-09-08T18:21:47.587Z,0
2017-09-08T18:22:48.242Z,0
2017-09-08T18:23:48.896Z,0
2017-09-08T18:24:49.549Z,0
2017-09-08T18:25:50.202Z,0
2017-09-08T18:26:50.859Z,0
2017-09-08T18:27:51.543Z,0
2017-09-08T18:28:52.222Z,0
2017-09-08T18:29:52.876Z,0
2017-09-08T18:30:53.529Z,0
2017-09-08T18:31:54.187Z,0
2017-09-08T18:32:54.839Z,0
2017-09-08T18:33:55.501Z,0
2017-09-08T18:34:56.149Z,0
2017-09-08T18:35:56.802Z,0
2017-09-08T18:36:57.474Z,0
2017-09-08T18:37:58.130Z,0
2017-09-08T18:38:58.778Z,0
2017-09-08T18:39:59.466Z,0
2017-09-08T18:41:00.127Z,0
2017-09-08T18:42:00.779Z,0
2017-09-08T18:43:01.458Z,0
2017-09-08T18:44:02.111Z,0
2017-09-08T18:45:03.159Z,0
2017-09-08T18:46:04.191Z,0
2017-09-08T18:47:05.035Z,0
2017-09-08T18:48:05.823Z,0
2017-09-08T18:49:06.648Z,0
2017-09-08T18:50:07.794Z,0
2017-09-08T18:51:08.651Z,0
2017-09-08T18:52:09.763Z,0
2017-09-08T18:53:10.575Z,0
2017-09-08T18:54:11.629Z,0
2017-09-08T18:55:12.563Z,0
2017-09-08T18:56:13.421Z,0
2017-09-08T18:57:14.249Z,0
2017-09-08T18:58:15.330Z,0
2017-09-08T18:59:16.069Z,0
2017-09-08T19:00:16.821Z,0
2017-09-08T19:01:17.801Z,0
2017-09-08T19:02:18.591Z,0
2017-09-08T19:03:19.289Z,0
2017-09-08T19:04:20.056Z,0
2017-09-08T19:05:20.904Z,0
2017-09-08T19:06:21.653Z,0
2017-09-08T19:07:22.385Z,0
2017-09-08T19:08:23.229Z,0
2017-09-08T19:09:24.006Z,0
2017-09-08T19:10:24.897Z,0
2017-09-08T19:11:25.729Z,0
2017-09-08T19:12:26.521Z,0
2017-09-08T19:13:27.342Z,0
2017-09-08T19:14:28.237Z,0
2017-09-08T19:15:29.138Z,0
2017-09-08T19:16:29.985Z,0
2017-09-08T19:17:30.910Z,0
2017-09-08T19:18:31.641Z,0
2017-09-08T19:19:32.460Z,0
2017-09-08T19:20:33.332Z,0
2017-09-08T19:21:34.164Z,0
2017-09-08T19:22:35.185Z,0
2017-09-08T19:23:35.964Z,0
2017-09-08T19:24:37.045Z,0
2017-09-08T19:25:37.767Z,0
2017-09-08T19:26:38.424Z,0
2017-09-08T19:27:39.079Z,0
2017-09-08T19:28:39.732Z,0
2017-09-08T19:29:40.389Z,0
2017-09-08T19:30:41.087Z,0
2017-09-08T19:31:41.780Z,0
2017-09-08T19:32:42.430Z,0
2017-09-08T19:33:43.082Z,0
2017-09-08T19:34:43.736Z,0
2017-09-08T19:35:44.388Z,0
2017-09-08T19:36:45.043Z,0
2017-09-08T19:37:45.700Z,0
2017-09-08T19:38:46.354Z,0
2017-09-08T19:39:47.009Z,0
2017-09-08T19:40:47.696Z,0
2017-09-08T19:41:48.379Z,0
2017-09-08T19:42:49.035Z,0
2017-09-08T19:43:49.691Z,0
2017-09-08T19:44:50.344Z,0
2017-09-08T19:45:51.037Z,0
2017-09-08T19:46:51.701Z,0
2017-09-08T19:47:52.451Z,0
2017-09-08T19:48:53.142Z,0
2017-09-08T19:49:53.830Z,0
2017-09-08T19:50:54.507Z,0
2017-09-08T19:51:55.206Z,0
2017-09-08T19:52:55.886Z,0
2017-09-08T19:53:56.540Z,0
2017-09-08T19:54:57.196Z,0
2017-09-08T19:55:57.889Z,0
2017-09-08T19:56:58.509Z,0
2017-09-08T19:57:59.191Z,0
2017-09-08T19:58:59.848Z,0
2017-09-08T20:00:00.531Z,0
2017-09-08T20:01:01.183Z,0
2017-09-08T20:02:01.869Z,0
2017-09-08T20:03:02.525Z,0
2017-09-08T20:04:03.211Z,0
2017-09-08T20:05:03.895Z,0
2017-09-08T20:06:04.549Z,0
2017-09-08T20:07:05.200Z,0
2017-09-08T20:08:05.861Z,0
2017-09-08T20:09:06.507Z,0
2017-09-08T20:10:07.197Z,0
2017-09-08T20:11:07.853Z,0
2017-09-08T20:12:08.508Z,0
2017-09-08T20:13:09.197Z,0
2017-09-08T20:14:09.846Z,0
2017-09-08T20:15:10.500Z,0
2017-09-08T20:16:11.156Z,0
2017-09-08T20:17:11.816Z,0
2017-09-08T20:18:12.464Z,0
2017-09-08T20:19:13.127Z,0
2017-09-08T20:20:13.777Z,0
2017-09-08T20:21:14.431Z,0
2017-09-08T20:22:15.087Z,0
2017-09-08T20:23:15.741Z,0
2017-09-08T20:24:16.392Z,0
2017-09-08T20:25:17.080Z,0
2017-09-08T20:26:17.735Z,0
2017-09-08T20:27:18.392Z,0
2017-09-08T20:28:19.045Z,0
2017-09-08T20:29:19.697Z,0
2017-09-08T20:30:20.356Z,0
2017-09-08T20:31:21.007Z,0
2017-09-08T20:32:21.693Z,0
2017-09-08T20:33:22.351Z,0
2017-09-08T20:34:23.002Z,0
2017-09-08T20:35:23.654Z,0
2017-09-08T20:36:24.310Z,0
2017-09-08T20:37:24.959Z,0
2017-09-08T20:38:25.612Z,0
2017-09-08T20:39:26.269Z,0
2017-09-08T20:40:26.923Z,0
2017-09-08T20:41:27.581Z,0
2017-09-08T20:42:28.228Z,0
2017-09-08T20:43:28.883Z,0
2017-09-08T20:44:29.536Z,0
2017-09-08T20:45:30.192Z,0
2017-09-08T20:46:30.842Z,0
2017-09-08T20:47:31.489Z,0
2017-09-08T20:48:32.146Z,0
2017-09-08T20:49:32.796Z,0
2017-09-08T20:50:33.450Z,0
2017-09-08T20:51:34.097Z,0
2017-09-08T20:52:34.788Z,0
2017-09-08T20:53:35.474Z,0
2017-09-08T20:54:36.130Z,0
2017-09-08T20:55:36.782Z,0
2017-09-08T20:56:37.428Z,0
2017-09-08T20:57:38.081Z,0
2017-09-08T20:58:38.735Z,0
2017-09-08T20:59:39.386Z,0
2017-09-08T21:00:40.038Z,0
2017-09-08T21:01:40.692Z,0
2017-09-08T21:02:41.357Z,0
2017-09-08T21:03:41.998Z,0
2017-09-08T21:04:42.658Z,0
2017-09-08T21:05:43.306Z,0
2017-09-08T21:06:43.963Z,0
2017-09-08T21:07:44.612Z,0
2017-09-08T21:08:45.264Z,0
2017-09-08T21:09:45.918Z,0
2017-09-08T21:10:46.576Z,0
2017-09-08T21:11:47.307Z,0
2017-09-08T21:12:47.962Z,0
2017-09-08T21:13:48.613Z,0
2017-09-08T21:14:49.269Z,0
2017-09-08T21:15:49.917Z,0
2017-09-08T21:16:50.572Z,0
2017-09-08T21:17:51.255Z,0
2017-09-08T21:18:51.910Z,0
2017-09-08T21:19:52.566Z,0
2017-09-08T21:20:53.218Z,0
2017-09-08T21:21:53.869Z,0
2017-09-08T21:22:54.519Z,0
2017-09-08T21:23:55.172Z,0
2017-09-08T21:24:55.828Z,0
2017-09-08T21:25:56.480Z,0
2017-09-08T21:26:57.161Z,0
2017-09-08T21:27:57.814Z,0
2017-09-08T21:28:58.468Z,0
2017-09-08T21:29:59.120Z,0
2017-09-08T21:30:59.773Z,0
2017-09-08T21:32:00.429Z,0
2017-09-08T21:33:01.109Z,0
2017-09-08T21:34:01.764Z,0
2017-09-08T21:35:02.415Z,0
2017-09-08T21:36:03.074Z,0
2017-09-08T21:37:03.755Z,0
2017-09-08T21:38:04.409Z,0
2017-09-08T21:39:05.092Z,0
2017-09-08T21:40:05.752Z,0
2017-09-08T21:41:06.407Z,0
2017-09-08T21:42:07.058Z,0
2017-09-08T21:43:07.742Z,0
2017-09-08T21:44:08.424Z,0
2017-09-08T21:45:09.077Z,0
2017-09-08T21:46:09.729Z,0
2017-09-08T21:47:10.384Z,0
2017-09-08T21:48:11.043Z,0
2017-09-08T21:49:11.685Z,0
2017-09-08T21:50:12.337Z,0
2017-09-08T21:51:12.987Z,0
2017-09-08T21:52:13.645Z,0
2017-09-08T21:53:14.299Z,0
2017-09-08T21:54:14.955Z,0
2017-09-08T21:55:15.629Z,0
2017-09-08T21:56:16.287Z,0
2017-09-08T21:57:16.940Z,0
2017-09-08T21:58:17.593Z,0
2017-09-08T21:59:18.247Z,0
2017-09-08T22:00:18.901Z,0
2017-09-08T22:01:19.550Z,0
2017-09-08T22:02:20.206Z,0
2017-09-08T22:03:20.858Z,0
2017-09-08T22:04:21.507Z,0
2017-09-08T22:05:22.197Z,0
2017-09-08T22:06:22.851Z,0
2017-09-08T22:07:23.511Z,0
2017-09-08T22:08:24.185Z,0
2017-09-08T22:09:24.839Z,0
2017-09-08T22:10:25.493Z,0
2017-09-08T22:11:26.143Z,0
2017-09-08T22:12:26.799Z,0
2017-09-08T22:13:27.454Z,0
2017-09-08T22:14:28.136Z,0
2017-09-08T22:15:28.826Z,0
2017-09-08T22:16:29.476Z,0
2017-09-08T22:17:30.162Z,0
2017-09-08T22:18:30.852Z,0
2017-09-08T22:19:31.493Z,0
2017-09-08T22:20:32.152Z,0
2017-09-08T22:21:32.801Z,0
2017-09-08T22:22:33.456Z,0
2017-09-08T22:23:34.109Z,0
2017-09-08T22:24:34.762Z,0
2017-09-08T22:25:35.447Z,0
2017-09-08T22:26:36.099Z,0
2017-09-08T22:27:36.753Z,0
2017-09-08T22:28:37.405Z,0
2017-09-08T22:29:38.060Z,0
2017-09-08T22:30:38.713Z,0
2017-09-08T22:31:39.370Z,0
2017-09-08T22:32:40.016Z,0
2017-09-08T22:33:40.672Z,0
2017-09-08T22:34:41.325Z,0
2017-09-08T22:35:41.979Z,0
2017-09-08T22:36:42.631Z,0
2017-09-08T22:37:43.313Z,0
2017-09-08T22:38:43.970Z,0
2017-09-08T22:39:44.619Z,0
2017-09-08T22:40:45.270Z,0
2017-09-08T22:41:45.925Z,0
2017-09-08T22:42:47.084Z,0
2017-09-08T22:43:47.764Z,0
2017-09-08T22:44:48.424Z,0
2017-09-08T22:45:49.077Z,0
2017-09-08T22:46:49.756Z,0
2017-09-08T22:47:50.413Z,0
2017-09-08T22:48:51.066Z,0
2017-09-08T22:49:51.720Z,0
2017-09-08T22:50:52.381Z,0
2017-09-08T22:51:53.033Z,0
2017-09-08T22:52:53.686Z,0
2017-09-08T22:53:54.364Z,0
2017-09-08T22:54:55.023Z,0
2017-09-08T22:55:55.676Z,0
2017-09-08T22:56:56.332Z,0
2017-09-08T22:57:56.986Z,0
2017-09-08T22:58:57.638Z,0
2017-09-08T22:59:58.293Z,0
2017-09-08T23:00:58.943Z,0
2017-09-08T23:01:59.632Z,0
2017-09-08T23:03:00.337Z,0
2017-09-08T23:04:00.990Z,0
2017-09-08T23:05:01.678Z,0
2017-09-08T23:06:02.330Z,0
2017-09-08T23:07:02.980Z,0
2017-09-08T23:08:03.637Z,0
2017-09-08T23:09:04.288Z,0
2017-09-08T23:10:04.972Z,0
2017-09-08T23:11:05.633Z,0
2017-09-08T23:12:06.309Z,0
2017-09-08T23:13:06.965Z,0
2017-09-08T23:14:07.621Z,0
2017-09-08T23:15:08.277Z,0
2017-09-08T23:16:08.930Z,0
2017-09-08T23:17:09.585Z,0
2017-09-08T23:18:10.239Z,0
2017-09-08T23:19:10.892Z,0
2017-09-08T23:20:11.543Z,0
2017-09-08T23:21:12.196Z,0
2017-09-08T23:22:12.882Z,0
2017-09-08T23:23:13.537Z,0
2017-09-08T23:24:14.189Z,0
2017-09-08T23:25:14.846Z,0
2017-09-08T23:26:15.497Z,0
2017-09-08T23:27:16.147Z,0
2017-09-08T23:28:16.802Z,0
2017-09-08T23:29:17.453Z,0
2017-09-08T23:30:18.106Z,0
2017-09-08T23:31:18.764Z,0
2017-09-08T23:32:19.414Z,0
2017-09-08T23:33:20.097Z,0
2017-09-08T23:34:20.780Z,0
2017-09-08T23:35:21.436Z,0
2017-09-08T23:36:22.106Z,0
2017-09-08T23:37:22.746Z,0
2017-09-08T23:38:23.403Z,0
2017-09-08T23:39:24.057Z,0
2017-09-08T23:40:24.710Z,0
2017-09-08T23:41:25.394Z,0
2017-09-08T23:42:26.048Z,0
2017-09-08T23:43:26.710Z,0